createdAt,value
2022-10-01T00:01:28.178Z,11.93
2022-10-01T00:03:57.105Z,11.95
2022-10-01T00:06:24.921Z,11.89
2022-10-01T00:08:52.751Z,11.87
2022-10-01T00:11:26.366Z,11.85
2022-10-01T00:13:55.258Z,11.94
2022-10-01T00:16:25.055Z,12.00
2022-10-01T00:18:54.392Z,12.05
2022-10-01T00:21:23.869Z,12.06
2022-10-01T00:23:55.619Z,11.99
2022-10-01T00:26:27.193Z,11.87
2022-10-01T00:28:57.399Z,12.00
2022-10-01T00:31:25.942Z,11.91
2022-10-01T00:33:54.400Z,11.96
2022-10-01T00:36:22.380Z,11.90
2022-10-01T00:38:50.191Z,12.08
2022-10-01T00:41:19.357Z,11.98
2022-10-01T00:43:51.149Z,12.03
2022-10-01T00:46:21.776Z,12.07
2022-10-01T00:48:56.041Z,12.10
2022-10-01T00:51:23.872Z,12.03
2022-10-01T00:53:51.458Z,12.17
2022-10-01T00:56:19.861Z,12.17
2022-10-01T00:58:54.244Z,12.04
2022-10-01T01:01:22.015Z,11.89
2022-10-01T01:03:50.130Z,11.72
2022-10-01T01:06:18.327Z,11.79
2022-10-01T01:08:45.996Z,11.66
2022-10-01T01:11:20.289Z,11.58
2022-10-01T01:13:56.741Z,11.33
2022-10-01T01:16:28.098Z,11.13
2022-10-01T01:19:00.245Z,11.25
2022-10-01T01:21:31.090Z,11.18
2022-10-01T01:24:25.004Z,11.10
2022-10-01T01:27:03.456Z,11.04
2022-10-01T01:29:39.406Z,10.92
2022-10-01T01:32:14.813Z,10.86
2022-10-01T01:34:44.833Z,10.63
2022-10-01T01:37:17.489Z,10.64
2022-10-01T01:39:48.985Z,10.46
2022-10-01T01:42:21.436Z,10.53
2022-10-01T01:44:53.199Z,10.50
2022-10-01T01:47:22.407Z,10.46
2022-10-01T01:49:51.710Z,10.51
2022-10-01T01:52:19.864Z,10.44
2022-10-01T01:54:49.694Z,10.40
2022-10-01T01:57:18.470Z,10.37
2022-10-01T01:59:46.366Z,10.36
2022-10-01T02:02:16.749Z,10.35
2022-10-01T02:04:46.960Z,10.27
2022-10-01T02:07:29.373Z,10.24
2022-10-01T02:10:06.196Z,10.24
2022-10-01T02:12:42.056Z,10.16
2022-10-01T02:15:12.867Z,10.26
2022-10-01T02:17:50.658Z,10.16
2022-10-01T02:20:21.665Z,10.21
2022-10-01T02:22:52.905Z,10.25
2022-10-01T02:25:27.177Z,10.19
2022-10-01T02:27:59.261Z,10.18
2022-10-01T02:30:27.494Z,10.14
2022-10-01T02:32:59.521Z,10.14
2022-10-01T02:35:34.651Z,10.11
2022-10-01T02:38:04.366Z,10.10
2022-10-01T02:40:36.361Z,10.07
2022-10-01T02:43:07.773Z,10.08
2022-10-01T02:45:38.271Z,10.04
2022-10-01T02:48:09.366Z,10.07
2022-10-01T02:50:42.365Z,10.02
2022-10-01T02:53:11.772Z,10.00
2022-10-01T02:55:40.691Z,10.00
2022-10-01T02:58:07.904Z,9.94
2022-10-01T03:00:36.280Z,9.94
2022-10-01T03:04:05.741Z,9.98
2022-10-01T03:06:35.946Z,9.96
2022-10-01T03:09:03.937Z,9.99
2022-10-01T03:11:31.902Z,9.98
2022-10-01T03:14:00.931Z,10.02
2022-10-01T03:16:28.687Z,10.03
2022-10-01T03:18:56.505Z,10.07
2022-10-01T03:21:27.381Z,10.05
2022-10-01T03:23:56.301Z,10.05
2022-10-01T03:26:24.073Z,10.09
2022-10-01T03:28:51.878Z,10.07
2022-10-01T03:31:19.445Z,10.12
2022-10-01T03:33:47.763Z,10.14
2022-10-01T03:36:15.548Z,10.08
2022-10-01T03:38:43.072Z,10.11
2022-10-01T03:41:12.155Z,10.09
2022-10-01T03:43:39.934Z,10.12
2022-10-01T03:46:08.030Z,10.10
2022-10-01T03:48:36.262Z,10.12
2022-10-01T03:51:05.274Z,10.10
2022-10-01T03:53:33.056Z,10.10
2022-10-01T03:56:01.124Z,10.11
2022-10-01T03:58:30.082Z,10.16
2022-10-01T04:00:58.260Z,10.12
2022-10-01T04:03:25.860Z,10.13
2022-10-01T04:05:53.487Z,10.22
2022-10-01T04:08:24.343Z,10.20
2022-10-01T04:10:52.742Z,10.22
2022-10-01T04:13:20.557Z,10.23
2022-10-01T04:15:49.680Z,10.14
2022-10-01T04:18:20.823Z,10.16
2022-10-01T04:20:48.990Z,10.14
2022-10-01T04:23:17.213Z,10.15
2022-10-01T04:25:45.631Z,10.15
2022-10-01T04:28:14.448Z,10.12
2022-10-01T04:30:43.388Z,10.18
2022-10-01T04:33:14.578Z,10.18
2022-10-01T04:35:43.223Z,10.19
2022-10-01T04:38:14.231Z,10.24
2022-10-01T04:40:42.212Z,10.23
2022-10-01T04:43:10.562Z,10.22
2022-10-01T04:45:38.497Z,10.23
2022-10-01T04:48:06.233Z,10.24
2022-10-01T04:50:35.134Z,10.25
2022-10-01T04:53:03.339Z,10.22
2022-10-01T04:55:31.960Z,10.23
2022-10-01T04:57:59.468Z,10.28
2022-10-01T05:00:27.862Z,10.28
2022-10-01T05:02:55.944Z,10.36
2022-10-01T05:05:27.093Z,10.41
2022-10-01T05:07:56.432Z,10.37
2022-10-01T05:10:24.998Z,10.35
2022-10-01T05:12:52.952Z,10.37
2022-10-01T05:15:21.097Z,10.39
2022-10-01T05:17:49.186Z,10.40
2022-10-01T05:20:18.697Z,10.41
2022-10-01T05:22:46.526Z,10.38
2022-10-01T05:25:15.545Z,10.44
2022-10-01T05:27:43.439Z,10.42
2022-10-01T05:30:12.251Z,10.42
2022-10-01T05:32:40.728Z,10.43
2022-10-01T05:35:09.646Z,10.47
2022-10-01T05:37:37.201Z,10.50
2022-10-01T05:40:06.520Z,10.53
2022-10-01T05:42:35.631Z,10.59
2022-10-01T05:45:04.391Z,10.60
2022-10-01T05:47:32.735Z,10.67
2022-10-01T05:50:00.390Z,10.66
2022-10-01T05:52:27.876Z,10.66
2022-10-01T05:54:55.569Z,10.71
2022-10-01T05:57:23.106Z,10.69
2022-10-01T05:59:52.392Z,10.70
2022-10-01T06:02:20.224Z,10.75
2022-10-01T06:04:48.037Z,10.77
2022-10-01T06:07:16.187Z,10.77
2022-10-01T06:09:44.898Z,10.84
2022-10-01T06:12:15.413Z,10.88
2022-10-01T06:14:46.759Z,10.88
2022-10-01T06:17:16.785Z,10.89
2022-10-01T06:19:44.624Z,10.93
2022-10-01T06:22:12.742Z,10.94
2022-10-01T06:25:42.211Z,10.94
2022-10-01T06:28:15.032Z,10.99
2022-10-01T06:30:43.775Z,10.99
2022-10-01T06:33:14.783Z,11.02
2022-10-01T06:35:43.852Z,11.02
2022-10-01T06:38:12.173Z,11.05
2022-10-01T06:40:40.283Z,11.05
2022-10-01T06:43:08.536Z,11.08
2022-10-01T06:45:38.965Z,11.15
2022-10-01T06:48:06.699Z,11.16
2022-10-01T06:50:36.332Z,11.19
2022-10-01T06:53:04.019Z,11.21
2022-10-01T06:55:33.341Z,11.22
2022-10-01T06:58:01.825Z,11.27
2022-10-01T07:00:30.768Z,11.29
2022-10-01T07:02:59.676Z,11.32
2022-10-01T07:05:27.879Z,11.33
2022-10-01T07:07:57.016Z,11.37
2022-10-01T07:10:25.525Z,11.44
2022-10-01T07:12:53.636Z,11.49
2022-10-01T07:15:22.599Z,11.55
2022-10-01T07:17:52.160Z,11.56
2022-10-01T07:20:21.276Z,11.57
2022-10-01T07:22:49.972Z,11.63
2022-10-01T07:25:19.304Z,11.66
2022-10-01T07:27:47.215Z,11.75
2022-10-01T07:30:15.023Z,11.70
2022-10-01T07:32:44.892Z,11.68
2022-10-01T07:35:12.642Z,11.72
2022-10-01T07:37:40.397Z,11.72
2022-10-01T07:40:09.717Z,11.75
2022-10-01T07:42:40.059Z,11.91
2022-10-01T07:45:09.143Z,11.94
2022-10-01T07:47:36.650Z,11.97
2022-10-01T07:50:07.008Z,12.10
2022-10-01T07:52:34.760Z,12.30
2022-10-01T07:55:02.902Z,12.38
2022-10-01T07:57:30.430Z,12.52
2022-10-01T07:59:59.517Z,12.52
2022-10-01T08:02:31.033Z,12.68
2022-10-01T08:05:16.376Z,12.68
2022-10-01T08:07:46.272Z,12.94
2022-10-01T08:10:14.707Z,13.09
2022-10-01T08:12:43.261Z,12.82
2022-10-01T08:15:13.793Z,12.84
2022-10-01T08:17:42.476Z,12.91
2022-10-01T08:20:15.785Z,12.91
2022-10-01T08:22:43.443Z,13.09
2022-10-01T08:25:11.410Z,13.12
2022-10-01T08:27:39.947Z,13.09
2022-10-01T08:30:09.853Z,13.13
2022-10-01T08:32:41.425Z,13.41
2022-10-01T08:35:09.704Z,13.47
2022-10-01T08:37:37.471Z,13.44
2022-10-01T08:40:06.105Z,13.28
2022-10-01T08:42:48.734Z,13.56
2022-10-01T08:45:21.215Z,13.54
2022-10-01T08:47:56.666Z,13.39
2022-10-01T08:50:33.200Z,13.43
2022-10-01T08:53:04.872Z,13.49
2022-10-01T08:55:36.444Z,13.61
2022-10-01T08:58:07.114Z,13.52
2022-10-01T09:00:35.526Z,13.48
2022-10-01T09:03:08.707Z,13.46
2022-10-01T09:05:45.345Z,13.56
2022-10-01T09:08:26.122Z,13.68
2022-10-01T09:10:58.006Z,13.67
2022-10-01T09:13:40.591Z,13.89
2022-10-01T09:16:15.733Z,14.12
2022-10-01T09:18:53.180Z,14.16
2022-10-01T09:21:25.868Z,14.09
2022-10-01T09:24:03.849Z,14.08
2022-10-01T09:26:32.168Z,14.35
2022-10-01T09:29:02.147Z,14.41
2022-10-01T09:31:34.988Z,14.44
2022-10-01T09:34:11.319Z,14.70
2022-10-01T09:36:42.734Z,14.95
2022-10-01T09:39:16.111Z,15.12
2022-10-01T09:41:46.179Z,15.36
2022-10-01T09:44:19.008Z,15.15
2022-10-01T09:46:47.096Z,15.33
2022-10-01T09:49:20.684Z,15.24
2022-10-01T09:51:51.237Z,15.14
2022-10-01T09:54:23.320Z,15.18
2022-10-01T09:56:54.966Z,15.64
2022-10-01T09:59:25.626Z,15.60
2022-10-01T10:01:58.851Z,15.70
2022-10-01T10:04:27.953Z,15.55
2022-10-01T10:07:01.222Z,16.02
2022-10-01T10:09:31.746Z,15.44
2022-10-01T10:11:59.731Z,15.76
2022-10-01T10:14:31.171Z,15.68
2022-10-01T10:16:59.261Z,16.08
2022-10-01T10:19:29.202Z,16.72
2022-10-01T10:22:00.615Z,16.62
2022-10-01T10:24:33.062Z,16.32
2022-10-01T10:27:03.817Z,16.96
2022-10-01T10:29:33.477Z,16.62
2022-10-01T10:32:04.783Z,16.43
2022-10-01T10:34:35.398Z,16.45
2022-10-01T10:37:06.103Z,16.40
2022-10-01T10:39:36.116Z,16.25
2022-10-01T10:42:05.866Z,16.16
2022-10-01T10:44:36.299Z,16.18
2022-10-01T10:47:06.616Z,16.08
2022-10-01T10:49:44.275Z,15.71
2022-10-01T10:52:23.849Z,15.72
2022-10-01T10:54:52.444Z,15.57
2022-10-01T10:57:22.293Z,15.36
2022-10-01T10:59:57.238Z,15.49
2022-10-01T11:02:25.797Z,15.80
2022-10-01T11:05:02.759Z,16.26
2022-10-01T11:07:31.261Z,16.39
2022-10-01T11:10:07.433Z,15.89
2022-10-01T11:12:46.030Z,15.93
2022-10-01T11:15:24.259Z,15.96
2022-10-01T11:18:25.284Z,15.84
2022-10-01T11:21:04.556Z,15.70
2022-10-01T11:24:08.990Z,15.68
2022-10-01T11:26:50.549Z,15.33
2022-10-01T11:29:29.367Z,15.22
2022-10-01T11:32:05.589Z,14.69
2022-10-01T11:35:06.639Z,14.44
2022-10-01T11:37:53.239Z,14.36
2022-10-01T11:40:25.072Z,14.41
2022-10-01T11:42:54.431Z,14.21
2022-10-01T11:45:25.301Z,14.36
2022-10-01T11:47:57.204Z,14.42
2022-10-01T11:50:26.798Z,14.16
2022-10-01T11:53:00.037Z,14.37
2022-10-01T11:56:04.738Z,14.57
2022-10-01T11:58:51.281Z,15.05
2022-10-01T12:01:25.868Z,15.36
2022-10-01T12:04:02.718Z,15.40
2022-10-01T12:06:34.503Z,15.30
2022-10-01T12:09:07.400Z,15.20
2022-10-01T12:11:38.836Z,15.25
2022-10-01T12:14:11.959Z,15.83
2022-10-01T12:16:55.656Z,15.81
2022-10-01T12:19:25.592Z,16.14
2022-10-01T12:21:58.307Z,16.23
2022-10-01T12:24:30.311Z,16.90
2022-10-01T12:27:15.742Z,16.41
2022-10-01T12:29:50.671Z,16.13
2022-10-01T12:32:23.947Z,15.89
2022-10-01T12:35:06.979Z,15.74
2022-10-01T12:37:44.777Z,15.31
2022-10-01T12:40:26.616Z,15.07
2022-10-01T12:43:08.174Z,14.98
2022-10-01T12:45:44.493Z,14.92
2022-10-01T12:48:17.754Z,14.87
2022-10-01T12:50:51.340Z,14.79
2022-10-01T12:53:25.970Z,14.77
2022-10-01T12:56:08.888Z,14.72
2022-10-01T12:59:06.440Z,14.77
2022-10-01T13:01:44.724Z,14.80
2022-10-01T13:04:26.870Z,14.82
2022-10-01T13:07:03.338Z,14.95
2022-10-01T13:09:39.593Z,15.70
2022-10-01T13:12:18.136Z,15.55
2022-10-01T13:14:46.485Z,15.67
2022-10-01T13:17:18.696Z,17.24
2022-10-01T13:19:50.066Z,17.47
2022-10-01T13:22:22.272Z,16.16
2022-10-01T13:24:58.522Z,16.00
2022-10-01T13:27:36.436Z,15.96
2022-10-01T13:30:07.711Z,15.91
2022-10-01T13:32:37.234Z,15.84
2022-10-01T13:35:24.304Z,15.95
2022-10-01T13:37:51.975Z,15.94
2022-10-01T13:40:26.697Z,15.93
2022-10-01T13:42:57.842Z,16.20
2022-10-01T13:45:29.526Z,17.65
2022-10-01T13:48:21.440Z,16.35
2022-10-01T13:50:57.409Z,16.57
2022-10-01T13:53:26.826Z,19.00
2022-10-01T13:55:56.714Z,19.19
2022-10-01T13:58:38.736Z,18.32
2022-10-01T14:01:24.686Z,18.90
2022-10-01T14:04:01.188Z,20.18
2022-10-01T14:06:31.745Z,20.55
2022-10-01T14:09:07.282Z,20.29
2022-10-01T14:11:54.392Z,20.56
2022-10-01T14:14:43.025Z,20.81
2022-10-01T14:17:11.170Z,20.89
2022-10-01T14:19:49.411Z,20.74
2022-10-01T14:22:30.035Z,21.55
2022-10-01T14:25:11.572Z,22.70
2022-10-01T14:27:45.406Z,21.75
2022-10-01T14:30:16.849Z,20.21
2022-10-01T14:33:09.331Z,19.64
2022-10-01T14:35:39.887Z,18.48
2022-10-01T14:38:13.825Z,18.32
2022-10-01T14:40:43.171Z,17.52
2022-10-01T14:43:24.100Z,16.98
2022-10-01T14:45:55.147Z,16.89
2022-10-01T14:48:24.712Z,16.75
2022-10-01T14:50:54.512Z,17.80
2022-10-01T14:53:24.851Z,18.82
2022-10-01T14:55:59.746Z,17.12
2022-10-01T14:58:31.228Z,16.62
2022-10-01T15:01:00.419Z,18.97
2022-10-01T15:03:28.423Z,19.49
2022-10-01T15:06:07.906Z,19.98
2022-10-01T15:08:41.881Z,19.35
2022-10-01T15:11:14.254Z,21.28
2022-10-01T15:13:44.537Z,17.68
2022-10-01T15:16:16.538Z,17.01
2022-10-01T15:18:48.194Z,16.66
2022-10-01T15:21:20.263Z,16.48
2022-10-01T15:23:49.280Z,16.36
2022-10-01T15:26:21.766Z,16.13
2022-10-01T15:28:49.691Z,16.02
2022-10-01T15:31:20.236Z,15.85
2022-10-01T15:33:48.884Z,15.73
2022-10-01T15:36:18.901Z,15.71
2022-10-01T15:38:47.598Z,15.97
2022-10-01T15:41:31.561Z,15.85
2022-10-01T15:44:01.162Z,15.77
2022-10-01T15:46:33.648Z,15.82
2022-10-01T15:49:20.367Z,15.76
2022-10-01T15:52:12.162Z,16.85
2022-10-01T15:54:40.876Z,15.89
2022-10-01T15:57:08.999Z,15.99
2022-10-01T15:59:37.576Z,16.94
2022-10-01T16:02:11.341Z,16.70
2022-10-01T16:04:39.399Z,17.58
2022-10-01T16:07:08.163Z,16.95
2022-10-01T16:09:35.690Z,15.57
2022-10-01T16:12:04.752Z,15.43
2022-10-01T16:14:36.689Z,15.37
2022-10-01T16:17:27.823Z,15.10
2022-10-01T16:19:57.850Z,15.02
2022-10-01T16:22:27.508Z,14.94
2022-10-01T16:24:56.424Z,14.67
2022-10-01T16:27:25.842Z,14.53
2022-10-01T16:30:04.739Z,14.51
2022-10-01T16:32:34.968Z,14.37
2022-10-01T16:35:21.030Z,14.37
2022-10-01T16:37:50.251Z,14.32
2022-10-01T16:40:19.085Z,14.37
2022-10-01T16:42:48.085Z,14.42
2022-10-01T16:45:17.953Z,14.59
2022-10-01T16:47:47.486Z,14.80
2022-10-01T16:50:17.056Z,14.80
2022-10-01T16:52:47.027Z,14.80
2022-10-01T16:55:19.273Z,14.92
2022-10-01T16:57:47.688Z,14.89
2022-10-01T17:00:16.505Z,14.91
2022-10-01T17:02:44.229Z,14.89
2022-10-01T17:05:18.049Z,14.76
2022-10-01T17:07:46.022Z,14.79
2022-10-01T17:10:14.088Z,14.40
2022-10-01T17:12:42.784Z,14.49
2022-10-01T17:15:14.151Z,14.38
2022-10-01T17:17:41.684Z,14.59
2022-10-01T17:20:10.243Z,14.23
2022-10-01T17:22:40.004Z,14.21
2022-10-01T17:25:09.346Z,14.32
2022-10-01T17:27:37.125Z,14.41
2022-10-01T17:30:05.282Z,14.26
2022-10-01T17:32:34.124Z,13.98
2022-10-01T17:35:01.856Z,13.93
2022-10-01T17:37:30.777Z,13.83
2022-10-01T17:40:00.243Z,13.75
2022-10-01T17:42:28.078Z,13.69
2022-10-01T17:44:55.803Z,13.69
2022-10-01T17:47:23.772Z,13.55
2022-10-01T17:49:51.399Z,13.35
2022-10-01T17:52:19.644Z,13.20
2022-10-01T17:54:47.292Z,13.12
2022-10-01T17:57:17.513Z,12.97
2022-10-01T17:59:45.465Z,13.15
2022-10-01T18:02:36.643Z,13.28
2022-10-01T18:05:03.574Z,12.96
2022-10-01T18:07:31.269Z,13.15
2022-10-01T18:10:02.473Z,12.99
2022-10-01T18:12:32.924Z,12.95
2022-10-01T18:15:00.744Z,12.77
2022-10-01T18:17:28.520Z,12.81
2022-10-01T18:19:57.609Z,12.55
2022-10-01T18:22:26.710Z,12.79
2022-10-01T18:24:55.087Z,12.71
2022-10-01T18:27:27.221Z,12.68
2022-10-01T18:29:56.364Z,12.53
2022-10-01T18:32:26.345Z,12.29
2022-10-01T18:34:57.862Z,12.53
2022-10-01T18:37:34.880Z,12.38
2022-10-01T18:40:09.515Z,12.36
2022-10-01T18:42:44.238Z,12.46
2022-10-01T18:45:18.390Z,12.41
2022-10-01T18:47:56.090Z,12.29
2022-10-01T18:50:35.741Z,12.25
2022-10-01T18:53:16.101Z,12.25
2022-10-01T18:56:03.860Z,12.26
2022-10-01T18:58:49.174Z,12.16
2022-10-01T19:01:26.417Z,12.34
2022-10-01T19:04:05.863Z,12.31
2022-10-01T19:06:45.324Z,12.25
2022-10-01T19:09:26.692Z,12.20
2022-10-01T19:12:01.448Z,11.83
2022-10-01T19:14:47.372Z,12.05
2022-10-01T19:17:28.130Z,11.76
2022-10-01T19:23:14.458Z,11.80
2022-10-01T19:25:49.457Z,11.69
2022-10-01T19:28:33.739Z,11.52
2022-10-01T19:31:12.688Z,11.54
2022-10-01T19:33:47.190Z,11.44
2022-10-01T19:36:26.594Z,11.39
2022-10-01T19:38:56.866Z,11.61
2022-10-01T19:41:29.684Z,11.34
2022-10-01T19:44:01.390Z,11.45
2022-10-01T19:46:36.711Z,11.22
2022-10-01T19:49:14.587Z,11.03
2022-10-01T19:51:45.845Z,10.81
2022-10-01T19:54:16.925Z,10.94
2022-10-01T19:56:48.657Z,10.97
2022-10-01T19:59:19.704Z,10.94
2022-10-01T20:01:54.867Z,10.97
2022-10-01T20:04:29.287Z,11.00
2022-10-01T20:07:06.132Z,11.19
2022-10-01T20:09:40.400Z,11.30
2022-10-01T20:12:20.508Z,11.59
2022-10-01T20:15:09.931Z,11.77
2022-10-01T20:17:50.029Z,11.76
2022-10-01T20:20:23.500Z,11.97
2022-10-01T20:23:03.124Z,11.81
2022-10-01T20:25:39.419Z,11.92
2022-10-01T20:28:11.597Z,11.94
2022-10-01T20:30:47.239Z,12.12
2022-10-01T20:33:24.133Z,12.13
2022-10-01T20:35:59.117Z,12.16
2022-10-01T20:38:30.468Z,12.31
2022-10-01T20:40:59.380Z,12.22
2022-10-01T20:43:31.393Z,12.21
2022-10-01T20:46:04.766Z,12.12
2022-10-01T20:48:34.881Z,11.92
2022-10-01T20:51:07.454Z,11.90
2022-10-01T20:53:38.834Z,11.85
2022-10-01T20:56:18.172Z,11.80
2022-10-01T20:58:49.762Z,11.84
2022-10-01T21:01:21.554Z,11.78
2022-10-01T21:03:53.309Z,11.79
2022-10-01T21:06:26.066Z,11.79
2022-10-01T21:08:58.175Z,11.80
2022-10-01T21:11:31.073Z,11.86
2022-10-01T21:14:07.532Z,11.79
2022-10-01T21:16:44.570Z,11.62
2022-10-01T21:19:34.312Z,11.52
2022-10-01T21:22:17.130Z,11.40
2022-10-01T21:24:59.245Z,11.20
2022-10-01T21:27:52.468Z,10.99
2022-10-01T21:30:21.320Z,11.03
2022-10-01T21:33:14.837Z,10.98
2022-10-01T21:35:50.277Z,10.75
2022-10-01T21:38:30.260Z,10.70
2022-10-01T21:41:07.907Z,10.62
2022-10-01T21:43:46.780Z,10.40
2022-10-01T21:46:21.528Z,10.38
2022-10-01T21:48:57.908Z,10.28
2022-10-01T21:51:34.647Z,10.11
2022-10-01T21:54:35.602Z,10.13
2022-10-01T21:57:12.072Z,10.19
2022-10-01T21:59:59.195Z,10.17
2022-10-01T22:02:33.647Z,9.89
2022-10-01T22:05:06.508Z,9.99
2022-10-01T22:07:37.180Z,9.65
2022-10-01T22:10:11.207Z,9.90
2022-10-01T22:12:42.802Z,9.89
2022-10-01T22:15:21.182Z,10.22
2022-10-01T22:17:50.618Z,10.14
2022-10-01T22:20:20.462Z,10.28
2022-10-01T22:22:50.853Z,10.26
2022-10-01T22:25:19.418Z,10.15
2022-10-01T22:27:52.032Z,10.05
2022-10-01T22:30:21.673Z,10.11
2022-10-01T22:32:52.296Z,10.14
2022-10-01T22:35:25.788Z,10.16
2022-10-01T22:37:57.292Z,10.05
2022-10-01T22:40:28.708Z,10.22
2022-10-01T22:43:02.368Z,10.19
2022-10-01T22:45:42.632Z,10.40
2022-10-01T22:48:25.737Z,10.39
2022-10-01T22:51:06.335Z,10.38
2022-10-01T22:53:55.793Z,10.39
2022-10-01T22:56:27.262Z,10.26
2022-10-01T22:59:08.289Z,10.31
2022-10-01T23:01:43.592Z,10.30
2022-10-01T23:04:21.811Z,10.39
2022-10-01T23:06:57.397Z,10.27
2022-10-01T23:09:29.165Z,10.52
2022-10-01T23:12:01.941Z,10.40
2022-10-01T23:14:40.816Z,10.35
2022-10-01T23:17:12.308Z,10.39
2022-10-01T23:19:46.582Z,10.35
2022-10-01T23:22:23.854Z,10.46
2022-10-01T23:25:04.613Z,10.49
2022-10-01T23:27:38.741Z,10.42
2022-10-01T23:30:11.822Z,10.48
2022-10-01T23:32:49.845Z,10.52
2022-10-01T23:35:20.657Z,10.44
2022-10-01T23:38:03.468Z,10.43
2022-10-01T23:40:34.171Z,10.42
2022-10-01T23:43:07.744Z,10.38
2022-10-01T23:45:40.250Z,10.45
2022-10-01T23:48:13.759Z,10.56
2022-10-01T23:50:44.393Z,10.51
2022-10-01T23:53:16.415Z,10.54
2022-10-01T23:56:08.172Z,10.47
2022-10-01T23:58:43.686Z,10.44
